createdAt,value
2018-09-06T00:00:05.310Z,20.41
2018-09-06T00:02:32.994Z,20.51
2018-09-06T00:05:00.726Z,20.54
2018-09-06T00:07:28.508Z,20.51
2018-09-06T00:09:56.211Z,20.39
2018-09-06T00:12:23.914Z,20.21
2018-09-06T00:14:51.616Z,20.25
2018-09-06T00:17:19.300Z,20.12
2018-09-06T00:19:47.023Z,20.20
2018-09-06T00:22:16.391Z,20.32
2018-09-06T00:24:44.076Z,20.07
2018-09-06T00:27:11.791Z,20.30
2018-09-06T00:29:39.482Z,20.37
2018-09-06T00:32:07.183Z,20.39
2018-09-06T00:34:36.466Z,20.50
2018-09-06T00:37:04.225Z,20.44
2018-09-06T00:39:31.887Z,20.20
2018-09-06T00:41:59.542Z,20.41
2018-09-06T00:44:27.275Z,20.25
2018-09-06T00:46:55.040Z,20.11
2018-09-06T00:49:22.781Z,20.11
2018-09-06T00:51:50.485Z,19.89
2018-09-06T00:54:18.225Z,19.73
2018-09-06T00:56:45.909Z,19.96
2018-09-06T00:59:13.724Z,19.72
2018-09-06T01:01:41.381Z,19.90
2018-09-06T01:04:09.065Z,19.81
2018-09-06T01:06:36.745Z,19.98
2018-09-06T01:09:05.508Z,20.06
2018-09-06T01:11:33.187Z,20.22
2018-09-06T01:14:00.883Z,20.48
2018-09-06T01:16:28.549Z,20.33
2018-09-06T01:18:56.230Z,20.35
2018-09-06T01:21:23.938Z,20.54
2018-09-06T01:23:51.599Z,20.64
2018-09-06T01:26:19.285Z,20.41
2018-09-06T01:28:47.026Z,20.21
2018-09-06T01:31:14.695Z,20.31
2018-09-06T01:33:42.362Z,19.88
2018-09-06T01:36:15.906Z,20.10
2018-09-06T01:38:43.567Z,20.44
2018-09-06T01:41:11.258Z,20.55
2018-09-06T01:43:38.938Z,20.46
2018-09-06T01:46:06.597Z,20.47
2018-09-06T01:48:34.258Z,20.58
2018-09-06T01:51:01.954Z,20.56
2018-09-06T01:53:29.657Z,20.68
2018-09-06T01:55:57.729Z,20.61
2018-09-06T01:58:25.533Z,20.75
2018-09-06T02:00:53.206Z,20.79
2018-09-06T02:03:20.897Z,20.92
2018-09-06T02:05:48.626Z,20.92
2018-09-06T02:08:16.286Z,20.87
2018-09-06T02:10:43.967Z,20.86
2018-09-06T02:13:11.651Z,20.81
2018-09-06T02:15:39.314Z,20.80
2018-09-06T02:18:06.964Z,20.69
2018-09-06T02:20:34.693Z,20.66
2018-09-06T02:23:02.353Z,20.65
2018-09-06T02:25:30.094Z,20.77
2018-09-06T02:27:57.827Z,20.85
2018-09-06T02:30:25.547Z,20.88
2018-09-06T02:32:53.264Z,20.84
2018-09-06T02:35:20.970Z,20.74
2018-09-06T02:37:48.654Z,20.71
2018-09-06T02:40:21.926Z,20.71
2018-09-06T02:42:49.594Z,20.60
2018-09-06T02:45:17.310Z,20.46
2018-09-06T02:47:50.613Z,20.36
2018-09-06T02:50:23.782Z,20.37
2018-09-06T02:52:52.293Z,20.44
2018-09-06T02:55:20.043Z,20.47
2018-09-06T02:57:48.301Z,20.54
2018-09-06T03:00:18.861Z,20.63
2018-09-06T03:02:46.550Z,20.75
2018-09-06T03:05:14.218Z,20.83
2018-09-06T03:07:41.908Z,20.90
2018-09-06T03:10:09.593Z,20.92
2018-09-06T03:12:37.265Z,20.90
2018-09-06T03:15:04.998Z,20.70
2018-09-06T03:17:32.662Z,20.72
2018-09-06T03:20:00.363Z,20.65
2018-09-06T03:22:28.069Z,20.57
2018-09-06T03:24:55.721Z,20.52
2018-09-06T03:27:23.404Z,20.43
2018-09-06T03:29:51.106Z,20.08
2018-09-06T03:32:18.822Z,19.93
2018-09-06T03:34:46.497Z,20.08
2018-09-06T03:37:14.194Z,19.95
2018-09-06T03:39:41.876Z,20.09
2018-09-06T03:42:09.537Z,19.96
2018-09-06T03:44:37.241Z,20.16
2018-09-06T03:47:04.905Z,20.17
2018-09-06T03:49:32.582Z,20.16
2018-09-06T03:52:00.393Z,20.35
2018-09-06T03:54:28.058Z,20.41
2018-09-06T03:56:55.974Z,20.56
2018-09-06T03:59:23.677Z,20.78
2018-09-06T04:01:51.386Z,20.76
2018-09-06T04:04:19.152Z,20.86
2018-09-06T04:06:46.865Z,20.92
2018-09-06T04:09:14.565Z,20.93
2018-09-06T04:11:42.229Z,21.10
2018-09-06T04:14:09.933Z,20.90
2018-09-06T04:16:37.778Z,20.98
2018-09-06T04:19:05.837Z,21.05
2018-09-06T04:21:33.562Z,21.01
2018-09-06T04:24:01.312Z,21.13
2018-09-06T04:26:28.981Z,22.04
2018-09-06T04:28:56.690Z,22.19
2018-09-06T04:31:24.403Z,22.63
2018-09-06T04:33:52.135Z,22.55
2018-09-06T04:36:19.951Z,23.36
2018-09-06T04:38:47.525Z,23.23
2018-09-06T04:41:15.213Z,23.52
2018-09-06T04:43:43.063Z,22.97
2018-09-06T04:46:10.730Z,22.69
2018-09-06T04:48:38.469Z,23.28
2018-09-06T04:51:06.245Z,23.11
2018-09-06T04:53:33.993Z,23.34
2018-09-06T04:56:01.658Z,22.89
2018-09-06T04:58:29.458Z,23.79
2018-09-06T05:00:57.078Z,24.34
2018-09-06T05:03:24.742Z,25.15
2018-09-06T05:05:52.446Z,24.97
2018-09-06T05:08:20.119Z,24.12
2018-09-06T05:10:47.790Z,23.58
2018-09-06T05:13:15.522Z,23.07
2018-09-06T05:15:43.337Z,23.46
2018-09-06T05:18:11.110Z,24.14
2018-09-06T05:20:38.846Z,24.91
2018-09-06T05:23:06.531Z,25.74
2018-09-06T05:25:34.670Z,25.19
2018-09-06T05:28:02.721Z,26.55
2018-09-06T05:30:30.450Z,27.32
2018-09-06T05:32:58.114Z,26.74
2018-09-06T05:35:25.822Z,24.90
2018-09-06T05:37:53.490Z,23.98
2018-09-06T05:40:21.175Z,23.59
2018-09-06T05:42:48.882Z,23.65
2018-09-06T05:45:16.537Z,23.61
2018-09-06T05:47:48.690Z,23.47
2018-09-06T05:50:16.363Z,22.97
2018-09-06T05:52:44.031Z,22.89
2018-09-06T05:55:11.721Z,22.24
2018-09-06T05:57:39.410Z,22.28
2018-09-06T06:01:10.203Z,22.71
2018-09-06T06:03:37.886Z,22.59
2018-09-06T06:06:05.563Z,22.27
2018-09-06T06:08:40.001Z,22.65
2018-09-06T06:11:07.742Z,22.68
2018-09-06T06:13:35.436Z,22.80
2018-09-06T06:16:03.189Z,22.53
2018-09-06T06:18:30.829Z,22.26
2018-09-06T06:20:58.528Z,22.25
2018-09-06T06:23:26.261Z,22.58
2018-09-06T06:25:54.176Z,22.61
2018-09-06T06:28:21.904Z,23.19
2018-09-06T06:30:49.598Z,23.76
2018-09-06T06:33:17.273Z,24.04
2018-09-06T06:35:44.962Z,24.22
2018-09-06T06:38:12.703Z,24.56
2018-09-06T06:40:40.424Z,24.70
2018-09-06T06:43:08.092Z,24.98
2018-09-06T06:45:35.769Z,25.82
2018-09-06T06:48:03.442Z,26.82
2018-09-06T06:50:31.382Z,25.34
2018-09-06T06:52:58.968Z,25.27
2018-09-06T06:55:26.662Z,26.36
2018-09-06T06:57:54.340Z,25.03
2018-09-06T07:00:22.070Z,25.44
2018-09-06T07:02:50.666Z,24.50
2018-09-06T07:05:18.375Z,25.11
2018-09-06T07:07:46.115Z,24.95
2018-09-06T07:10:13.804Z,24.27
2018-09-06T07:12:41.495Z,24.32
2018-09-06T07:15:09.257Z,24.79
2018-09-06T07:17:37.032Z,25.32
2018-09-06T07:20:04.830Z,25.90
2018-09-06T07:22:33.212Z,26.06
2018-09-06T07:25:01.193Z,25.97
2018-09-06T07:27:28.970Z,26.34
2018-09-06T07:29:56.756Z,26.23
2018-09-06T07:32:24.469Z,25.65
2018-09-06T07:34:52.175Z,26.38
2018-09-06T07:37:19.903Z,27.09
2018-09-06T07:39:47.573Z,26.92
2018-09-06T07:42:15.240Z,27.26
2018-09-06T07:44:42.945Z,26.93
2018-09-06T07:47:10.630Z,27.01
2018-09-06T07:49:38.301Z,28.02
2018-09-06T07:52:06.279Z,27.78
2018-09-06T07:54:33.979Z,27.17
2018-09-06T07:57:01.659Z,28.06
2018-09-06T07:59:29.384Z,28.00
2018-09-06T08:01:57.046Z,27.84
2018-09-06T08:04:24.749Z,27.61
2018-09-06T08:06:52.535Z,26.96
2018-09-06T08:09:21.208Z,27.49
2018-09-06T08:11:49.014Z,26.99
2018-09-06T08:14:16.938Z,26.95
2018-09-06T08:16:44.730Z,26.82
2018-09-06T08:19:12.523Z,27.26
2018-09-06T08:21:40.248Z,27.37
2018-09-06T08:24:08.018Z,26.75
2018-09-06T08:26:35.753Z,27.10
2018-09-06T08:29:03.524Z,27.82
2018-09-06T08:31:31.330Z,27.58
2018-09-06T08:33:58.941Z,27.73
2018-09-06T08:36:26.703Z,28.21
2018-09-06T08:38:54.462Z,28.16
2018-09-06T08:41:22.162Z,27.84
2018-09-06T08:43:49.938Z,28.76
2018-09-06T08:46:17.714Z,28.32
2018-09-06T08:48:46.366Z,28.09
2018-09-06T08:51:14.144Z,28.09
2018-09-06T08:53:41.945Z,27.45
2018-09-06T08:56:09.666Z,27.87
2018-09-06T08:58:37.430Z,27.02
2018-09-06T09:01:10.917Z,26.03
2018-09-06T09:03:38.941Z,27.14
2018-09-06T09:06:07.064Z,28.06
2018-09-06T09:08:34.918Z,27.99
2018-09-06T09:11:02.635Z,27.97
2018-09-06T09:13:30.475Z,28.75
2018-09-06T09:15:58.255Z,27.76
2018-09-06T09:18:26.089Z,28.41
2018-09-06T09:20:53.780Z,28.31
2018-09-06T09:23:21.688Z,28.95
2018-09-06T09:25:49.507Z,28.89
2018-09-06T09:28:17.409Z,28.87
2018-09-06T09:30:45.311Z,29.08
2018-09-06T09:33:13.113Z,30.11
2018-09-06T09:35:40.844Z,29.61
2018-09-06T09:38:09.070Z,28.35
2018-09-06T09:40:36.858Z,29.05
2018-09-06T09:43:04.597Z,28.22
2018-09-06T09:45:32.344Z,27.90
2018-09-06T09:48:00.124Z,29.13
2018-09-06T09:52:55.170Z,29.44
2018-09-06T09:55:22.985Z,29.25
2018-09-06T09:57:50.751Z,28.59
2018-09-06T10:00:23.009Z,28.46
2018-09-06T10:02:56.148Z,28.56
2018-09-06T10:05:29.382Z,27.34
2018-09-06T10:07:58.062Z,27.54
2018-09-06T10:10:26.361Z,27.53
2018-09-06T10:12:54.112Z,29.48
2018-09-06T10:15:21.882Z,29.29
2018-09-06T10:17:49.595Z,28.72
2018-09-06T10:20:17.454Z,28.31
2018-09-06T10:22:45.281Z,29.51
2018-09-06T10:25:13.123Z,28.59
2018-09-06T10:27:41.087Z,28.89
2018-09-06T10:30:08.878Z,28.71
2018-09-06T10:32:36.677Z,28.54
2018-09-06T10:35:04.553Z,29.27
2018-09-06T10:37:32.309Z,28.56
2018-09-06T10:40:00.119Z,27.61
2018-09-06T10:42:27.993Z,29.57
2018-09-06T10:44:55.749Z,30.12
2018-09-06T10:47:23.593Z,30.80
2018-09-06T10:49:51.369Z,30.39
2018-09-06T10:52:19.220Z,30.46
2018-09-06T10:54:46.963Z,30.09
2018-09-06T10:57:14.870Z,30.46
2018-09-06T10:59:42.661Z,30.99
2018-09-06T11:02:10.531Z,30.63
2018-09-06T11:04:38.379Z,30.86
2018-09-06T11:07:06.286Z,32.10
2018-09-06T11:09:34.068Z,32.42
2018-09-06T11:12:01.745Z,32.40
2018-09-06T11:14:29.471Z,30.85
2018-09-06T11:16:57.178Z,31.54
2018-09-06T11:19:24.896Z,31.32
2018-09-06T11:21:52.727Z,30.48
2018-09-06T11:24:20.331Z,30.16
2018-09-06T11:26:48.078Z,30.66
2018-09-06T11:29:15.816Z,30.51
2018-09-06T11:31:43.573Z,30.66
2018-09-06T11:34:11.350Z,31.22
2018-09-06T11:36:39.002Z,32.29
2018-09-06T11:39:09.337Z,31.06
2018-09-06T11:41:37.428Z,31.30
2018-09-06T11:44:05.659Z,31.63
2018-09-06T11:46:33.483Z,30.79
2018-09-06T11:49:01.233Z,31.13
2018-09-06T11:51:29.050Z,31.53
2018-09-06T11:53:56.774Z,31.48
2018-09-06T11:56:24.562Z,31.53
2018-09-06T11:58:52.273Z,30.89
2018-09-06T12:01:20.072Z,31.26
2018-09-06T12:03:47.974Z,31.43
2018-09-06T12:06:15.772Z,31.14
2018-09-06T12:08:43.494Z,31.00
2018-09-06T12:11:11.278Z,31.34
2018-09-06T12:13:39.038Z,31.46
2018-09-06T12:16:07.484Z,30.47
2018-09-06T12:18:35.242Z,30.93
2018-09-06T12:21:03.051Z,31.63
2018-09-06T12:23:30.853Z,32.48
2018-09-06T12:25:58.641Z,31.07
2018-09-06T12:28:26.848Z,29.68
2018-09-06T12:30:54.566Z,30.42
2018-09-06T12:33:23.137Z,30.21
2018-09-06T12:35:51.125Z,30.70
2018-09-06T12:38:18.933Z,30.79
2018-09-06T12:40:46.752Z,30.46
2018-09-06T12:43:14.502Z,30.64
2018-09-06T12:45:42.253Z,30.50
2018-09-06T12:48:10.090Z,29.56
2018-09-06T12:50:37.762Z,29.93
2018-09-06T12:53:05.682Z,29.88
2018-09-06T12:55:33.435Z,30.30
2018-09-06T12:58:01.259Z,30.76
2018-09-06T13:00:29.142Z,29.76
2018-09-06T13:02:56.914Z,30.87
2018-09-06T13:05:24.683Z,31.21
2018-09-06T13:07:52.393Z,30.39
2018-09-06T13:10:20.176Z,29.76
2018-09-06T13:12:47.991Z,30.12
2018-09-06T13:15:16.065Z,29.78
2018-09-06T13:17:43.865Z,29.91
2018-09-06T13:20:11.557Z,29.65
2018-09-06T13:22:39.354Z,29.56
2018-09-06T13:25:07.153Z,30.39
2018-09-06T13:27:34.881Z,30.69
2018-09-06T13:30:02.618Z,30.18
2018-09-06T13:32:30.415Z,29.77
2018-09-06T13:34:58.101Z,29.87
2018-09-06T13:37:25.848Z,31.03
2018-09-06T13:39:53.616Z,31.28
2018-09-06T13:42:21.306Z,31.29
2018-09-06T13:44:49.042Z,31.84
2018-09-06T13:47:16.762Z,31.47
2018-09-06T13:49:44.768Z,30.19
2018-09-06T13:52:12.469Z,30.47
2018-09-06T13:54:40.205Z,31.20
2018-09-06T13:57:07.942Z,30.75
2018-09-06T13:59:35.682Z,31.49
2018-09-06T14:02:03.493Z,32.35
2018-09-06T14:04:31.209Z,32.22
2018-09-06T14:06:58.943Z,31.13
2018-09-06T14:09:27.030Z,30.92
2018-09-06T14:11:54.785Z,31.59
2018-09-06T14:14:22.465Z,32.14
2018-09-06T14:16:50.288Z,32.28
2018-09-06T14:19:17.981Z,32.46
2018-09-06T14:21:45.697Z,31.69
2018-09-06T14:24:13.513Z,31.47
2018-09-06T14:26:41.200Z,31.62
2018-09-06T14:29:09.001Z,31.19
2018-09-06T14:31:36.723Z,30.68
2018-09-06T14:34:04.839Z,30.29
2018-09-06T14:36:32.616Z,30.22
2018-09-06T14:39:01.223Z,30.63
2018-09-06T14:41:29.058Z,30.99
2018-09-06T14:43:56.774Z,30.87
2018-09-06T14:46:24.575Z,30.65
2018-09-06T14:48:52.391Z,30.11
2018-09-06T14:51:20.109Z,30.14
2018-09-06T14:53:47.902Z,30.39
2018-09-06T14:56:15.634Z,30.15
2018-09-06T14:58:43.335Z,29.98
2018-09-06T15:01:11.087Z,30.09
2018-09-06T15:03:38.773Z,30.35
2018-09-06T15:06:06.473Z,30.26
2018-09-06T15:08:34.212Z,30.20
2018-09-06T15:11:01.885Z,30.04
2018-09-06T15:13:29.579Z,30.00
2018-09-06T15:15:57.331Z,29.50
2018-09-06T15:18:25.082Z,28.80
2018-09-06T15:20:52.776Z,29.14
2018-09-06T15:23:20.578Z,28.67
2018-09-06T15:25:48.636Z,28.31
2018-09-06T15:28:16.408Z,27.97
2018-09-06T15:30:44.168Z,28.01
2018-09-06T15:33:11.893Z,28.28
2018-09-06T15:35:39.645Z,28.31
2018-09-06T15:38:07.505Z,28.54
2018-09-06T15:40:35.294Z,28.61
2018-09-06T15:43:03.030Z,28.73
2018-09-06T15:45:30.813Z,28.95
2018-09-06T15:47:58.544Z,29.08
2018-09-06T15:50:26.255Z,28.81
2018-09-06T15:52:54.031Z,28.44
2018-09-06T15:55:21.724Z,28.56
2018-09-06T15:57:49.489Z,28.42
2018-09-06T16:00:17.226Z,28.43
2018-09-06T16:02:44.971Z,28.25
2018-09-06T16:05:12.769Z,27.93
2018-09-06T16:07:40.567Z,27.69
2018-09-06T16:10:08.389Z,27.71
2018-09-06T16:12:36.175Z,27.81
2018-09-06T16:15:04.000Z,27.85
2018-09-06T16:17:31.726Z,27.52
2018-09-06T16:19:59.590Z,27.52
2018-09-06T16:22:27.658Z,27.60
2018-09-06T16:24:55.370Z,26.78
2018-09-06T16:27:23.101Z,26.68
2018-09-06T16:29:50.909Z,26.75
2018-09-06T16:32:18.644Z,26.64
2018-09-06T16:34:46.471Z,26.44
2018-09-06T16:37:14.290Z,26.40
2018-09-06T16:39:41.934Z,26.35
2018-09-06T16:42:09.665Z,25.86
2018-09-06T16:44:37.415Z,24.79
2018-09-06T16:47:05.166Z,24.43
2018-09-06T16:49:32.934Z,24.05
2018-09-06T16:52:00.653Z,23.27
2018-09-06T16:54:28.350Z,23.45
2018-09-06T16:56:56.062Z,23.34
2018-09-06T16:59:23.805Z,23.43
2018-09-06T17:01:51.498Z,23.54
2018-09-06T17:04:19.258Z,23.61
2018-09-06T17:06:47.019Z,23.54
2018-09-06T17:09:14.790Z,23.64
2018-09-06T17:11:42.486Z,23.56
2018-09-06T17:14:10.232Z,23.45
2018-09-06T17:16:37.941Z,23.47
2018-09-06T17:19:05.737Z,23.53
2018-09-06T17:21:33.508Z,23.66
2018-09-06T17:24:01.241Z,23.70
2018-09-06T17:26:28.969Z,23.87
2018-09-06T17:28:56.794Z,23.71
2018-09-06T17:31:24.474Z,23.51
2018-09-06T17:33:52.216Z,23.08
2018-09-06T17:36:19.962Z,22.85
2018-09-06T17:38:47.765Z,22.76
2018-09-06T17:41:15.425Z,22.61
2018-09-06T17:43:44.321Z,22.71
2018-09-06T17:46:12.137Z,22.79
2018-09-06T17:48:39.920Z,22.47
2018-09-06T17:51:07.713Z,22.59
2018-09-06T17:53:35.492Z,22.57
2018-09-06T17:56:03.201Z,22.63
2018-09-06T17:58:30.971Z,22.26
2018-09-06T18:01:41.084Z,22.66
2018-09-06T18:04:08.849Z,22.81
2018-09-06T18:06:36.578Z,22.83
2018-09-06T18:09:08.262Z,22.58
2018-09-06T18:11:36.150Z,22.72
2018-09-06T18:14:03.998Z,22.81
2018-09-06T18:16:31.794Z,22.81
2018-09-06T18:18:59.544Z,22.81
2018-09-06T18:21:27.276Z,22.64
2018-09-06T18:23:55.838Z,22.84
2018-09-06T18:31:20.452Z,22.37
2018-09-06T18:33:48.212Z,22.36
2018-09-06T18:36:15.985Z,22.05
2018-09-06T18:38:44.507Z,22.10
2018-09-06T18:41:12.228Z,22.03
2018-09-06T18:43:39.993Z,22.00
2018-09-06T18:46:07.817Z,21.95
2018-09-06T18:48:35.493Z,22.07
2018-09-06T18:51:03.245Z,21.95
2018-09-06T18:53:31.105Z,22.10
2018-09-06T18:55:58.865Z,21.96
2018-09-06T18:58:26.619Z,22.14
2018-09-06T19:00:54.377Z,22.31
2018-09-06T19:03:22.070Z,22.08
2018-09-06T19:05:49.802Z,21.94
2018-09-06T19:08:17.502Z,21.95
2018-09-06T19:10:45.174Z,22.00
2018-09-06T19:13:12.885Z,21.87
2018-09-06T19:15:40.604Z,22.13
2018-09-06T19:18:08.429Z,22.03
2018-09-06T19:20:36.140Z,22.02
2018-09-06T19:23:03.916Z,22.21
2018-09-06T19:25:31.607Z,22.45
2018-09-06T19:27:59.316Z,22.28
2018-09-06T19:30:27.185Z,22.37
2018-09-06T19:32:54.918Z,22.22
2018-09-06T19:35:22.653Z,22.10
2018-09-06T19:37:50.401Z,22.31
2018-09-06T19:40:18.150Z,22.47
2018-09-06T19:42:45.893Z,22.36
2018-09-06T19:45:13.617Z,22.43
2018-09-06T19:47:41.346Z,22.44
2018-09-06T19:50:09.074Z,22.67
2018-09-06T19:52:36.833Z,22.60
2018-09-06T19:55:04.622Z,23.00
2018-09-06T19:57:32.642Z,22.91
2018-09-06T20:00:00.470Z,22.97
2018-09-06T20:02:28.233Z,22.71
2018-09-06T20:04:56.567Z,22.36
2018-09-06T20:07:24.313Z,22.03
2018-09-06T20:09:52.101Z,21.88
2018-09-06T20:12:19.844Z,21.96
2018-09-06T20:14:47.550Z,21.85
2018-09-06T20:17:15.300Z,21.54
2018-09-06T20:19:43.021Z,21.36
2018-09-06T20:22:10.764Z,21.23
2018-09-06T20:24:38.564Z,21.28
2018-09-06T20:27:06.237Z,21.20
2018-09-06T20:29:33.990Z,20.98
2018-09-06T20:32:01.697Z,20.85
2018-09-06T20:34:29.681Z,20.79
2018-09-06T20:36:57.410Z,20.98
2018-09-06T20:39:25.177Z,21.01
2018-09-06T20:41:52.929Z,20.89
2018-09-06T20:44:20.711Z,21.21
2018-09-06T20:46:48.405Z,21.57
2018-09-06T20:49:16.098Z,21.80
2018-09-06T20:51:43.793Z,21.64
2018-09-06T20:54:11.565Z,21.29
2018-09-06T20:56:39.349Z,21.13
2018-09-06T20:59:07.163Z,21.11
2018-09-06T21:01:34.892Z,21.04
2018-09-06T21:04:02.661Z,21.15
2018-09-06T21:06:30.382Z,21.14
2018-09-06T21:08:58.121Z,21.00
2018-09-06T21:11:25.893Z,21.05
2018-09-06T21:13:53.590Z,21.10
2018-09-06T21:16:21.374Z,21.05
2018-09-06T21:18:49.052Z,21.24
2018-09-06T21:21:16.753Z,21.36
2018-09-06T21:23:44.470Z,21.39
2018-09-06T21:26:12.161Z,21.38
2018-09-06T21:28:39.934Z,21.35
2018-09-06T21:31:07.732Z,21.55
2018-09-06T21:33:35.433Z,21.53
2018-09-06T21:36:03.129Z,21.67
2018-09-06T21:38:30.797Z,21.79
2018-09-06T21:40:58.462Z,21.77
2018-09-06T21:43:26.261Z,21.91
2018-09-06T21:45:53.964Z,21.70
2018-09-06T21:48:21.684Z,21.86
2018-09-06T21:50:49.396Z,21.67
2018-09-06T21:53:17.071Z,21.64
2018-09-06T21:55:44.777Z,22.22
2018-09-06T21:58:12.477Z,22.26
2018-09-06T22:00:40.177Z,22.32
2018-09-06T22:03:13.351Z,22.20
2018-09-06T22:05:41.047Z,22.28
2018-09-06T22:08:08.725Z,22.52
2018-09-06T22:10:36.488Z,22.53
2018-09-06T22:13:04.180Z,22.67
2018-09-06T22:15:31.901Z,22.69
2018-09-06T22:17:59.604Z,22.86
2018-09-06T22:20:27.258Z,23.07
2018-09-06T22:22:55.077Z,22.87
2018-09-06T22:25:22.782Z,23.03
2018-09-06T22:27:50.482Z,23.05
2018-09-06T22:30:18.216Z,23.03
2018-09-06T22:32:45.949Z,23.16
2018-09-06T22:35:13.612Z,22.88
2018-09-06T22:37:41.289Z,22.86
2018-09-06T22:40:09.019Z,22.91
2018-09-06T22:42:36.698Z,23.12
2018-09-06T22:45:04.414Z,22.98
2018-09-06T22:47:32.082Z,22.96
2018-09-06T22:49:59.763Z,23.01
2018-09-06T22:52:27.721Z,22.61
2018-09-06T22:54:55.414Z,22.93
2018-09-06T22:57:23.127Z,22.91
2018-09-06T22:59:50.798Z,22.87
2018-09-06T23:02:35.319Z,22.81
2018-09-06T23:05:04.203Z,22.54
2018-09-06T23:07:31.910Z,22.72
2018-09-06T23:09:59.629Z,22.69
2018-09-06T23:12:29.029Z,22.85
2018-09-06T23:14:57.081Z,22.54
2018-09-06T23:17:33.594Z,22.83
2018-09-06T23:20:01.272Z,22.54
2018-09-06T23:22:38.926Z,22.67
2018-09-06T23:25:07.981Z,22.67
2018-09-06T23:27:38.258Z,22.68
2018-09-06T23:30:07.545Z,22.62
2018-09-06T23:32:35.337Z,22.67
2018-09-06T23:35:04.018Z,22.67
2018-09-06T23:37:31.700Z,22.56
2018-09-06T23:42:42.634Z,22.21
2018-09-06T23:45:16.532Z,22.15
2018-09-06T23:47:45.155Z,22.02
2018-09-06T23:50:21.246Z,22.04
2018-09-06T23:52:49.342Z,21.89
2018-09-06T23:55:17.971Z,21.79
2018-09-06T23:57:46.867Z,21.92
